Latest Weather Observations for Kowanyama

IDQ60801

Issued at 9:32 am EST Friday 9 December 2016 (issued every 30 minutes, with the page automatically refreshed every 10 minutes)

About weather observations | Map of weather stations | Latest weather observations for QLD | Other Formats
Station Details ID: 029038 Name: KOWANYAMA AIRPORT Lat: -15.48 Lon: 141.75 Height: 9.6 m
Data from the previous 72 hours. | See also: Recent months at Kowanyama
Date/Time
EST
Temp
°C
App
Temp
°C
Dew
Point
°C
Rel
Hum
%
Delta-T
°C
Wind Press
QNH
hPa
Press
MSL
hPa
Rain since
9am
mm
Dir  Spd
km/h
Gust
km/h
Spd
kts
Gust
kts
09/09:30am 31.6 33.1 18.9 47 8.3 NE 9 15 5 8 1010.1 1010.0 0.0
09/09:00am 30.4 31.7 19.4 51 7.2 NE 11 19 6 10 1010.2 1010.1 0.0
09/08:30am 30.4 31.5 19.7 52 7.0 NE 13 19 7 10 1010.4 1010.3 0.0
09/08:00am 29.4 30.9 19.7 56 6.3 NE 11 20 6 11 1010.5 1010.4 0.0
09/07:30am 28.4 29.6 19.9 60 5.6 NE 13 20 7 11 1010.4 1010.3 0.0
09/07:00am 27.7 29.2 20.5 65 4.7 NE 13 17 7 9 1010.1 1010.0 0.0
09/06:30am 26.9 29.6 20.3 67 4.3 ENE 6 9 3 5 1009.7 1009.6 0.0
09/06:00am 26.6 29.3 20.2 68 4.2 E 6 7 3 4 1009.3 1009.2 0.0
09/05:30am 26.7 29.1 20.1 67 4.3 NE 7 9 4 5 1008.6 1008.5 0.0
09/05:00am 27.1 29.5 20.0 65 4.6 NNE 7 11 4 6 1008.5 1008.4 0.0
09/04:30am 27.6 29.6 19.9 63 5.0 NE 9 15 5 8 1008.2 1008.1 0.0
09/04:00am 27.8 29.7 19.8 61 5.2 NE 9 13 5 7 1007.7 1007.6 0.0
09/03:30am 28.2 30.1 19.7 60 5.5 NNE 9 17 5 9 1007.8 1007.7 0.0
09/03:00am 28.7 30.0 20.2 60 5.6 NNE 13 22 7 12 1007.7 1007.6 0.0
09/02:30am 27.9 32.4 23.9 79 2.8 NNE 7 9 4 5 1007.6 1007.5 0.0
09/02:00am 28.0 32.4 23.8 78 2.9 N 7 9 4 5 1007.7 1007.6 0.0
09/01:30am 27.9 32.2 23.7 78 2.9 NE 7 9 4 5 1007.8 1007.7 0.0
09/01:00am 28.1 33.4 23.7 77 3.0 N 2 6 1 3 1007.9 1007.8 0.0
09/12:30am 28.3 32.7 23.4 75 3.4 N 6 9 3 5 1008.0 1007.9 0.0
09/12:00am 28.4 32.6 23.5 75 3.4 NNE 7 9 4 5 1008.3 1008.2 0.0
 
Date/Time
EST
Temp
°C
App
Temp
°C
Dew
Point
°C
Rel
Hum
%
Delta-T
°C
Wind Press
QNH
hPa
Press
MSL
hPa
Rain since
9am
mm
Dir  Spd
km/h
Gust
km/h
Spd
kts
Gust
kts
08/11:30pm 28.0 33.0 23.2 75 3.3 N 2 6 1 3 1008.5 1008.4 0.0
08/11:00pm 28.3 33.7 23.2 74 3.5 CALM 0 6 0 3 1008.4 1008.3 0.0
08/10:30pm 28.5 32.7 23.4 74 3.5 NNE 7 9 4 5 1008.1 1008.0 0.0
08/10:00pm 28.8 33.0 23.2 71 3.8 N 6 7 3 4 1007.8 1007.7 0.0
08/09:30pm 29.2 33.4 23.4 71 4.0 NW 7 9 4 5 1007.6 1007.5 0.0
08/09:00pm 29.3 33.2 23.0 69 4.3 WSW 7 11 4 6 1006.8 1006.7 0.0
08/08:30pm 29.7 32.8 22.9 67 4.6 WSW 11 15 6 8 1006.4 1006.3 0.0
08/08:00pm 30.1 32.8 22.8 65 5.0 SW 13 19 7 10 1006.1 1006.0 0.0
08/07:30pm 30.4 32.3 22.8 64 5.2 WSW 17 24 9 13 1005.8 1005.7 0.0
08/07:00pm 31.2 33.5 22.8 61 5.8 W 15 20 8 11 1005.3 1005.2 0.0
08/06:30pm 32.4 33.6 22.2 55 7.0 WSW 19 28 10 15 1004.9 1004.8 0.0
08/06:00pm 33.5 34.4 22.0 51 7.9 WSW 20 28 11 15 1004.6 1004.5 0.0
08/05:30pm 34.2 34.4 21.3 47 8.7 WSW 22 28 12 15 1004.4 1004.3 0.0
08/05:00pm 35.9 36.5 21.0 42 10.1 WSW 19 26 10 14 1004.0 1003.9 0.0
08/04:30pm 38.5 38.2 14.3 23 15.1 SE 9 20 5 11 1003.9 1003.8 0.0
08/04:00pm 37.9 36.9 15.7 27 14.1 SE 15 20 8 11 1004.1 1004.0 0.0
08/03:30pm 37.3 36.3 15.7 27 13.7 E 15 22 8 12 1004.3 1004.2 0.0
08/03:00pm 38.0 36.9 16.3 27 13.9 E 17 30 9 16 1004.6 1004.5 0.0
08/02:30pm 37.9 37.1 16.2 27 13.9 E 15 41 8 22 1004.9 1004.8 0.0
08/02:00pm 36.1 36.1 17.3 33 12.2 E 13 26 7 14 1005.5 1005.4 0.0
08/01:30pm 37.0 38.1 18.1 33 12.4 S 9 24 5 13 1006.1 1006.0 0.0
08/01:00pm 36.2 37.6 18.7 35 11.5 ESE 9 15 5 8 1006.6 1006.5 0.0
08/12:30pm 34.4 35.7 19.2 40 10.0 E 11 20 6 11 1007.1 1007.0 0.0
08/12:00pm 34.1 34.9 19.0 41 9.9 E 13 20 7 11 1007.5 1007.4 0.0
08/11:30am 34.7 35.7 19.5 40 10.1 E 13 24 7 13 1007.9 1007.8 0.0
08/11:00am 32.9 33.5 19.4 45 8.9 NE 15 26 8 14 1008.5 1008.4 0.0
08/10:30am 34.3 36.8 20.3 44 9.4 NNE 7 17 4 9 1008.8 1008.7 0.0
08/10:00am 32.1 33.2 20.4 50 7.8 NE 15 24 8 13 1009.0 1008.9 0.0
08/09:30am 31.4 32.8 20.4 52 7.3 NNE 13 20 7 11 1009.3 1009.2 0.0
08/09:00am 31.0 32.2 20.6 54 6.9 NE 15 24 8 13 1009.4 1009.3 0.0
08/08:30am 30.0 31.8 20.3 56 6.4 NNE 11 22 6 12 1009.5 1009.4 0.0
08/08:00am 29.4 31.6 21.1 61 5.5 NE 11 17 6 9 1009.8 1009.7 0.0
08/07:30am 28.4 31.1 20.7 63 5.1 NNE 7 13 4 7 1009.9 1009.8 0.0
08/07:00am 27.8 31.6 20.1 63 5.0 CALM 0 0 0 0 1009.7 1009.6 0.0
08/06:30am 27.2 31.3 20.8 68 4.2 CALM 0 0 0 0 1009.4 1009.3 0.0
08/06:00am 26.3 29.8 20.4 70 3.9 NNE 2 9 1 5 1008.9 1008.8 0.0
08/05:30am 26.7 29.2 20.3 68 4.2 NNE 7 11 4 6 1008.6 1008.5 0.0
08/05:00am 26.9 29.3 20.0 66 4.5 NNE 7 13 4 7 1008.4 1008.3 0.0
08/04:30am 27.2 29.0 19.5 62 5.0 NNE 9 17 5 9 1008.4 1008.3 0.0
08/04:00am 27.4 29.0 19.2 61 5.3 NE 9 15 5 8 1008.1 1008.0 0.0
08/03:30am 27.5 29.2 19.3 61 5.3 NE 9 17 5 9 1008.1 1008.0 0.0
08/03:00am 27.4 29.2 19.5 62 5.1 NNE 9 13 5 7 1008.1 1008.0 0.0
08/02:30am 26.5 29.2 20.3 68 4.1 NNE 6 9 3 5 1008.1 1008.0 0.0
08/02:00am 25.9 28.6 20.2 71 3.7 ENE 6 7 3 4 1008.0 1007.9 0.0
08/01:30am 26.2 28.9 20.3 70 3.9 NE 6 7 3 4 1008.1 1008.0 0.0
08/01:00am 26.2 28.7 20.3 70 3.9 NE 7 11 4 6 1008.4 1008.3 0.0
08/12:30am 26.5 29.2 20.6 70 3.9 NE 7 9 4 5 1008.6 1008.5 0.0
08/12:00am 26.2 28.8 20.1 69 4.0 NE 6 7 3 4 1008.9 1008.8 0.0
 
Date/Time
EST
Temp
°C
App
Temp
°C
Dew
Point
°C
Rel
Hum
%
Delta-T
°C
Wind Press
QNH
hPa
Press
MSL
hPa
Rain since
9am
mm
Dir  Spd
km/h
Gust
km/h
Spd
kts
Gust
kts
07/11:30pm 26.8 29.5 20.2 67 4.3 NNE 6 7 3 4 1009.0 1008.9 0.0
07/11:00pm 27.3 29.7 20.1 64 4.7 N 7 9 4 5 1008.9 1008.8 0.0
07/10:30pm 27.5 29.2 20.1 64 4.8 NNE 11 19 6 10 1008.6 1008.5 0.0
07/10:00pm 28.1 30.7 20.1 62 5.3 WNW 6 9 3 5 1008.1 1008.0 0.0
07/09:30pm 28.8 31.5 20.3 60 5.6 NW 6 11 3 6 1007.7 1007.6 0.0
07/09:00pm 28.8 30.6 20.3 60 5.6 SSW 11 13 6 7 1007.3 1007.2 0.0
07/08:30pm 29.0 30.7 20.2 59 5.8 SW 11 17 6 9 1007.1 1007.0 0.0
07/08:00pm 29.4 31.2 20.3 58 6.0 WSW 11 15 6 8 1007.1 1007.0 0.0
07/07:30pm 30.0 32.0 20.0 55 6.6 SSW 9 19 5 10 1007.0 1006.9 0.0
07/07:00pm 30.8 31.2 19.8 52 7.2 WSW 17 22 9 12 1006.7 1006.6 0.0
07/06:30pm 32.2 33.4 19.1 45 8.6 WSW 11 17 6 9 1006.4 1006.3 0.0
07/06:00pm 33.4 34.0 18.7 41 9.6 WSW 13 17 7 9 1006.2 1006.1 0.0
07/05:30pm 36.9 34.9 10.2 20 15.6 SE 11 19 6 10 1006.0 1005.9 0.0
07/05:00pm 37.0 34.9 9.6 19 15.9 E 11 20 6 11 1005.8 1005.7 0.0
07/04:30pm 37.1 35.4 11.1 21 15.4 ESE 11 24 6 13 1005.8 1005.7 0.0
07/04:00pm 37.9 35.8 12.5 22 15.5 SE 15 28 8 15 1005.8 1005.7 0.0
07/03:30pm 37.6 35.9 12.3 22 15.3 E 13 22 7 12 1006.1 1006.0 0.0
07/03:00pm 37.1 36.0 13.2 24 14.6 ENE 11 28 6 15 1006.6 1006.5 0.0
07/02:30pm 36.4 34.5 11.9 23 14.7 NE 13 24 7 13 1007.0 1006.9 0.0
07/02:00pm 36.6 35.8 12.8 24 14.5 SE 9 26 5 14 1007.5 1007.4 0.0
07/01:30pm 35.4 33.3 12.4 25 13.8 E 15 26 8 14 1008.1 1008.0 0.0
07/01:00pm 35.2 33.4 12.2 25 13.8 NNE 13 20 7 11 1008.5 1008.4 0.0
07/12:30pm 34.8 33.9 12.5 26 13.4 ENE 9 19 5 10 1008.9 1008.8 0.0
07/12:00pm 34.4 33.0 13.3 28 12.8 SE 13 24 7 13 1009.3 1009.2 0.0
07/11:30am 34.0 32.6 13.5 29 12.4 SE 13 26 7 14 1009.9 1009.8 0.0
07/11:00am 32.2 31.5 14.3 33 10.9 E 11 20 6 11 1010.2 1010.1 0.0
07/10:30am 32.1 31.6 16.0 38 10.1 ESE 13 20 7 11 1010.9 1010.8 0.0
07/10:00am 30.7 30.3 16.3 42 9.0 NE 13 22 7 12 1011.3 1011.2 0.0
07/09:30am 30.4 30.5 17.5 46 8.2 ENE 13 20 7 11 1011.6 1011.5 0.0
07/09:00am 29.5 29.5 18.0 50 7.3 ENE 15 24 8 13 1011.7 1011.6 0.0
07/08:30am 28.7 29.0 18.8 55 6.4 ENE 15 24 8 13 1011.6 1011.5 0.0
07/08:00am 28.1 28.7 18.5 56 6.1 ENE 13 22 7 12 1011.6 1011.5 0.0
07/07:30am 27.1 28.2 18.1 58 5.7 NE 9 13 5 7 1011.5 1011.4 0.0
07/07:00am 25.6 28.1 19.0 67 4.2 NE 4 7 2 4 1011.5 1011.4 0.0
07/06:30am 23.2 26.2 18.5 75 3.0 CALM 0 6 0 3 1011.4 1011.3 0.0
07/06:00am 22.6 25.9 19.0 80 2.3 CALM 0 0 0 0 1010.8 1010.7 0.0
07/05:30am 23.5 26.7 18.8 75 3.0 CALM 0 0 0 0 1010.6 1010.5 0.0
07/05:00am 23.6 26.7 18.7 74 3.1 CALM 0 0 0 0 1010.3 1010.2 0.0
07/04:30am 24.5 27.7 18.9 71 3.6 CALM 0 2 0 1 1009.9 1009.8 0.0
07/04:00am 25.6 27.4 18.8 66 4.3 N 7 7 4 4 1009.5 1009.4 0.0
07/03:30am 25.9 27.3 18.6 64 4.6 N 9 11 5 6 1009.1 1009.0 0.0
07/03:00am 25.9 28.1 19.5 68 4.1 NNE 7 9 4 5 1008.8 1008.7 0.0
07/02:30am 25.0 27.9 21.1 79 2.6 NE 7 9 4 5 1008.5 1008.4 0.0
07/02:00am 25.1 29.5 21.4 80 2.5 CALM 0 0 0 0 1008.4 1008.3 0.0
07/01:30am 25.6 29.2 21.3 77 2.8 NNE 4 6 2 3 1008.3 1008.2 0.0
07/01:00am 25.9 29.1 21.6 77 2.9 NE 7 11 4 6 1008.5 1008.4 0.0
07/12:30am 26.2 30.6 21.4 75 3.2 CALM 0 0 0 0 1008.6 1008.5 0.0
07/12:00am 26.7 30.1 21.7 74 3.3 NNE 6 9 3 5 1008.6 1008.5 0.0
 
Date/Time
EST
Temp
°C
App
Temp
°C
Dew
Point
°C
Rel
Hum
%
Delta-T
°C
Wind Press
QNH
hPa
Press
MSL
hPa
Rain since
9am
mm
Dir  Spd
km/h
Gust
km/h
Spd
kts
Gust
kts
06/11:30pm 27.0 30.4 21.7 73 3.5 NNE 6 11 3 6 1008.5 1008.4 0.0
06/11:00pm 27.2 30.6 21.7 72 3.7 NE 6 7 3 4 1008.6 1008.5 0.0
06/10:30pm 27.6 30.9 21.9 71 3.8 NNE 7 11 4 6 1008.3 1008.2 0.0
06/10:00pm 27.8 31.0 21.6 69 4.2 SSW 7 9 4 5 1007.7 1007.6 0.0
06/09:30pm 28.1 30.9 21.6 68 4.3 SW 9 13 5 7 1007.7 1007.6 0.0
06/09:00pm 28.4 30.7 21.4 66 4.7 SW 11 15 6 8 1007.6 1007.5 0.0
06/08:30pm 28.8 31.1 21.3 64 5.0 SW 11 17 6 9 1007.7 1007.6 0.0
06/08:00pm 29.3 31.0 21.0 61 5.5 SW 13 17 7 9 1007.5 1007.4 0.0
06/07:30pm 29.8 32.1 20.6 57 6.1 WSW 9 13 5 7 1007.4 1007.3 0.0
06/07:00pm 30.6 32.1 20.5 54 6.7 WSW 13 19 7 10 1007.0 1006.9 0.0
06/06:30pm 31.7 32.6 20.0 50 7.7 WSW 15 20 8 11 1006.6 1006.5 0.0
06/06:00pm 33.9 34.4 18.4 40 10.1 ENE 13 24 7 13 1006.4 1006.3 0.0
06/05:30pm 37.1 34.8 11.8 22 15.2 ESE 15 20 8 11 1006.0 1005.9 0.0
06/05:00pm 37.7 35.4 11.6 21 15.7 E 15 26 8 14 1005.9 1005.8 0.0
06/04:30pm 37.3 35.5 12.0 22 15.2 E 13 20 7 11 1005.9 1005.8 0.0
06/04:00pm 37.5 34.6 12.8 22 15.1 ESE 20 30 11 16 1005.9 1005.8 0.0
06/03:30pm 37.2 34.0 11.2 21 15.4 E 19 35 10 19 1006.1 1006.0 0.0
06/03:00pm 37.3 35.5 13.3 23 14.7 E 15 24 8 13 1006.8 1006.7 0.0
06/02:30pm 36.8 34.9 12.9 24 14.5 ENE 15 32 8 17 1007.2 1007.1 0.0
06/02:00pm 36.6 34.8 13.4 25 14.2 E 15 24 8 13 1008.0 1007.9 0.0
06/01:30pm 36.4 34.8 13.8 26 13.9 ENE 15 28 8 15 1008.6 1008.5 0.0
06/01:00pm 35.7 32.9 13.2 26 13.7 ESE 20 37 11 20 1009.1 1009.0 0.0
06/12:30pm 35.9 33.6 14.0 27 13.5 E 19 39 10 21 1009.8 1009.7 0.0
06/12:00pm 34.8 32.5 14.1 28 12.7 E 19 32 10 17 1010.3 1010.2 0.0
06/11:30am 34.4 33.1 15.8 33 11.7 ENE 17 28 9 15 1010.9 1010.8 0.0
06/11:00am 33.4 32.7 16.3 36 10.8 ENE 15 26 8 14 1011.7 1011.6 0.0
06/10:30am 33.3 32.5 17.1 38 10.3 ENE 17 26 9 14 1012.3 1012.2 0.0
06/10:00am 31.8 30.5 16.9 40 9.4 ENE 19 30 10 16 1012.8 1012.7 0.0

Other Formats:

Comma delimited format used in spreadsheet applications
http://www.bom.gov.au/fwo/IDQ60801/IDQ60801.94268.axf

JavaScript Object Notation format (JSON) in row-major order
http://www.bom.gov.au/fwo/IDQ60801/IDQ60801.94268.json